createdAt,value
2018-04-25T00:02:12.018Z,54.20
2018-04-25T00:04:41.034Z,53.89
2018-04-25T00:07:10.044Z,54.03
2018-04-25T00:09:38.278Z,54.27
2018-04-25T00:12:06.775Z,54.38
2018-04-25T00:14:35.781Z,54.53
2018-04-25T00:17:04.793Z,54.79
2018-04-25T00:19:33.030Z,54.87
2018-04-25T00:22:02.038Z,55.10
2018-04-25T00:24:31.062Z,55.16
2018-04-25T00:26:59.406Z,55.40
2018-04-25T00:29:28.417Z,55.73
2018-04-25T00:31:56.654Z,55.68
2018-04-25T00:34:24.895Z,55.79
2018-04-25T00:36:53.137Z,55.90
2018-04-25T00:39:21.373Z,55.86
2018-04-25T00:41:49.613Z,55.78
2018-04-25T00:44:17.845Z,55.97
2018-04-25T00:46:46.854Z,55.97
2018-04-25T00:49:15.085Z,56.12
2018-04-25T00:51:43.326Z,56.01
2018-04-25T00:54:11.626Z,56.45
2018-04-25T00:56:39.881Z,56.62
2018-04-25T00:59:08.150Z,56.50
2018-04-25T01:01:36.381Z,56.74
2018-04-25T01:04:05.390Z,56.60
2018-04-25T01:06:34.398Z,56.56
2018-04-25T01:09:02.653Z,57.00
2018-04-25T01:11:31.659Z,57.01
2018-04-25T01:13:59.903Z,57.17
2018-04-25T01:16:28.515Z,57.23
2018-04-25T01:18:57.518Z,57.16
2018-04-25T01:21:25.761Z,57.56
2018-04-25T01:23:54.027Z,57.19
2018-04-25T01:26:22.270Z,57.17
2018-04-25T01:28:57.198Z,57.22
2018-04-25T01:31:34.131Z,57.43
2018-04-25T01:34:12.487Z,57.27
2018-04-25T01:40:02.387Z,57.12
2018-04-25T01:43:08.146Z,56.94
2018-04-25T01:49:31.064Z,57.15
2018-04-25T01:52:17.085Z,57.03
2018-04-25T01:55:03.022Z,56.96
2018-04-25T01:57:49.135Z,57.32
2018-04-25T02:00:35.301Z,57.56
2018-04-25T02:03:02.746Z,57.46
2018-04-25T02:05:31.000Z,57.56
2018-04-25T02:07:59.246Z,58.00
2018-04-25T02:10:27.482Z,58.05
2018-04-25T02:12:55.734Z,58.40
2018-04-25T02:15:23.978Z,58.13
2018-04-25T02:17:52.973Z,58.44
2018-04-25T02:20:21.974Z,58.45
2018-04-25T02:22:50.993Z,58.68
2018-04-25T02:25:19.230Z,58.80
2018-04-25T02:27:48.231Z,59.22
2018-04-25T02:30:17.238Z,59.12
2018-04-25T02:32:45.487Z,59.61
2018-04-25T02:35:13.731Z,59.53
2018-04-25T02:37:42.258Z,59.56
2018-04-25T02:40:11.253Z,59.45
2018-04-25T02:42:40.260Z,59.53
2018-04-25T02:45:09.262Z,59.43
2018-04-25T02:47:37.503Z,59.67
2018-04-25T02:50:05.750Z,59.70
2018-04-25T02:52:34.075Z,59.54
2018-04-25T02:55:03.078Z,59.47
2018-04-25T02:57:31.331Z,59.77
2018-04-25T03:00:00.337Z,60.17
2018-04-25T03:02:29.354Z,59.92
2018-04-25T03:04:57.590Z,60.12
2018-04-25T03:07:26.115Z,59.93
2018-04-25T03:09:54.333Z,59.96
2018-04-25T03:12:22.575Z,60.06
2018-04-25T03:14:50.818Z,60.21
2018-04-25T03:17:19.115Z,60.43
2018-04-25T03:19:47.735Z,60.54
2018-04-25T03:22:15.958Z,60.77
2018-04-25T03:24:44.190Z,60.79
2018-04-25T03:27:12.434Z,61.00
2018-04-25T03:29:40.794Z,61.08
2018-04-25T03:32:09.022Z,60.81
2018-04-25T03:34:37.257Z,61.14
2018-04-25T03:37:05.508Z,61.27
2018-04-25T03:39:33.746Z,61.36
2018-04-25T03:42:02.258Z,61.74
2018-04-25T03:44:31.260Z,61.55
2018-04-25T03:46:59.487Z,61.79
2018-04-25T03:49:28.010Z,62.13
2018-04-25T03:51:57.010Z,62.07
2018-04-25T03:54:25.303Z,61.91
2018-04-25T03:56:53.694Z,61.75
2018-04-25T03:59:21.956Z,61.82
2018-04-25T04:01:50.185Z,61.53
2018-04-25T04:04:18.418Z,61.49
2018-04-25T04:06:46.730Z,61.54
2018-04-25T04:09:14.974Z,61.54
2018-04-25T04:11:43.210Z,62.48
2018-04-25T04:14:12.227Z,61.83
2018-04-25T04:16:40.585Z,62.00
2018-04-25T04:19:09.672Z,61.23
2018-04-25T04:21:38.674Z,60.86
2018-04-25T04:24:06.930Z,60.49
2018-04-25T04:26:35.940Z,60.11
2018-04-25T04:29:04.171Z,59.64
2018-04-25T04:31:32.798Z,60.00
2018-04-25T04:34:01.806Z,60.47
2018-04-25T04:36:30.049Z,60.57
2018-04-25T04:38:58.286Z,61.22
2018-04-25T04:41:26.521Z,60.32
2018-04-25T04:43:54.770Z,60.77
2018-04-25T04:46:23.011Z,60.39
2018-04-25T04:48:51.247Z,60.59
2018-04-25T04:51:19.818Z,60.82
2018-04-25T04:53:48.826Z,61.06
2018-04-25T04:56:17.066Z,61.10
2018-04-25T04:58:46.073Z,61.21
2018-04-25T05:01:15.090Z,61.43
2018-04-25T05:03:43.326Z,62.19
2018-04-25T05:06:11.570Z,62.26
2018-04-25T05:08:40.172Z,62.44
2018-04-25T05:11:09.007Z,62.94
2018-04-25T05:13:37.237Z,62.79
2018-04-25T05:16:05.493Z,62.79
2018-04-25T05:18:33.769Z,62.96
2018-04-25T05:21:02.008Z,63.15
2018-04-25T05:23:30.245Z,63.15
2018-04-25T05:25:58.858Z,62.76
2018-04-25T05:28:27.877Z,62.94
2018-04-25T05:30:56.111Z,63.04
2018-04-25T05:33:24.349Z,62.61
2018-04-25T05:35:52.603Z,62.70
2018-04-25T05:38:20.858Z,62.66
2018-04-25T05:40:49.861Z,62.38
2018-04-25T05:43:18.118Z,62.38
2018-04-25T05:45:47.354Z,62.19
2018-04-25T05:48:15.606Z,61.93
2018-04-25T05:50:43.841Z,61.78
2018-04-25T05:53:12.462Z,61.26
2018-04-25T05:55:41.462Z,61.40
2018-04-25T05:58:09.694Z,60.80
2018-04-25T06:00:37.942Z,60.95
2018-04-25T06:03:07.212Z,60.57
2018-04-25T06:05:35.452Z,60.24
2018-04-25T06:08:03.686Z,60.07
2018-04-25T06:10:31.943Z,60.34
2018-04-25T06:13:00.182Z,59.63
2018-04-25T06:15:28.434Z,59.30
2018-04-25T06:17:56.665Z,59.07
2018-04-25T06:20:24.947Z,58.83
2018-04-25T06:22:53.178Z,58.92
2018-04-25T06:25:21.423Z,58.62
2018-04-25T06:27:49.662Z,59.04
2018-04-25T06:30:17.917Z,57.86
2018-04-25T06:32:46.945Z,57.75
2018-04-25T06:35:15.178Z,57.53
2018-04-25T06:37:43.425Z,57.38
2018-04-25T06:40:11.661Z,56.61
2018-04-25T06:42:39.910Z,56.78
2018-04-25T06:45:08.917Z,55.82
2018-04-25T06:47:37.925Z,55.32
2018-04-25T06:50:06.182Z,55.11
2018-04-25T06:52:35.182Z,53.97
2018-04-25T06:55:04.271Z,52.62
2018-04-25T06:57:33.292Z,52.72
2018-04-25T07:00:01.517Z,51.46
2018-04-25T07:02:29.766Z,50.65
2018-04-25T07:04:58.022Z,49.71
2018-04-25T07:07:26.374Z,50.30
2018-04-25T07:09:55.370Z,49.54
2018-04-25T07:12:23.623Z,49.23
2018-04-25T07:14:52.625Z,48.62
2018-04-25T07:17:21.940Z,47.91
2018-04-25T07:19:50.170Z,47.60
2018-04-25T07:22:18.422Z,47.44
2018-04-25T07:24:46.766Z,46.90
2018-04-25T07:27:15.010Z,47.12
2018-04-25T07:29:43.245Z,46.99
2018-04-25T07:32:11.503Z,46.77
2018-04-25T07:34:39.758Z,46.99
2018-04-25T07:37:08.773Z,47.01
2018-04-25T07:39:37.005Z,47.29
2018-04-25T07:42:05.290Z,47.37
2018-04-25T07:44:34.297Z,46.83
2018-04-25T07:47:03.503Z,47.45
2018-04-25T07:49:32.509Z,46.45
2018-04-25T07:52:00.740Z,46.39
2018-04-25T07:54:29.003Z,46.26
2018-04-25T07:56:57.245Z,46.20
2018-04-25T07:59:25.521Z,46.31
2018-04-25T08:01:53.764Z,46.12
2018-04-25T08:04:22.762Z,44.87
2018-04-25T08:06:51.813Z,46.14
2018-04-25T08:09:20.054Z,45.31
2018-04-25T08:11:48.294Z,45.57
2018-04-25T08:14:34.989Z,45.38
2018-04-25T08:17:20.998Z,44.23
2018-04-25T08:22:58.841Z,44.45
2018-04-25T08:25:27.078Z,44.01
2018-04-25T08:27:55.325Z,43.69
2018-04-25T08:30:23.565Z,42.59
2018-04-25T08:32:51.817Z,43.21
2018-04-25T08:35:20.098Z,42.45
2018-04-25T08:37:49.103Z,42.06
2018-04-25T08:40:18.141Z,42.00
2018-04-25T08:42:46.374Z,41.72
2018-04-25T08:45:14.648Z,41.83
2018-04-25T08:47:43.633Z,42.10
2018-04-25T08:50:12.656Z,41.20
2018-04-25T08:52:41.000Z,40.32
2018-04-25T08:55:09.182Z,40.34
2018-04-25T08:57:38.185Z,40.23
2018-04-25T09:00:07.234Z,40.37
2018-04-25T09:02:36.977Z,40.82
2018-04-25T09:05:05.212Z,39.53
2018-04-25T09:07:33.635Z,39.85
2018-04-25T09:10:01.879Z,38.70
2018-04-25T09:12:30.214Z,39.52
2018-04-25T09:14:58.446Z,38.03
2018-04-25T09:17:27.470Z,37.53
2018-04-25T09:19:55.703Z,37.71
2018-04-25T09:22:24.214Z,36.83
2018-04-25T09:24:52.450Z,37.40
2018-04-25T09:27:20.694Z,36.36
2018-04-25T09:29:48.942Z,36.25
2018-04-25T09:32:17.207Z,36.26
2018-04-25T09:34:46.217Z,35.30
2018-04-25T09:37:14.471Z,35.92
2018-04-25T09:39:43.480Z,35.29
2018-04-25T09:42:11.749Z,35.32
2018-04-25T09:44:40.754Z,34.53
2018-04-25T09:47:09.009Z,34.85
2018-04-25T09:49:38.018Z,34.20
2018-04-25T09:52:06.290Z,34.38
2018-04-25T09:54:35.306Z,34.07
2018-04-25T09:57:03.565Z,33.98
2018-04-25T09:59:31.810Z,33.94
2018-04-25T10:02:03.029Z,32.99
2018-04-25T10:04:31.266Z,33.70
2018-04-25T10:06:59.501Z,34.70
2018-04-25T10:09:27.758Z,35.22
2018-04-25T10:11:56.011Z,35.30
2018-04-25T10:14:24.240Z,35.05
2018-04-25T10:16:53.262Z,35.40
2018-04-25T10:19:22.619Z,35.56
2018-04-25T10:21:52.358Z,36.12
2018-04-25T10:24:21.373Z,34.15
2018-04-25T10:26:49.601Z,34.15
2018-04-25T10:29:17.834Z,33.10
2018-04-25T10:31:46.285Z,33.02
2018-04-25T10:34:15.297Z,33.03
2018-04-25T10:36:43.526Z,33.55
2018-04-25T10:39:11.787Z,33.10
2018-04-25T10:41:40.023Z,32.77
2018-04-25T10:44:08.283Z,32.92
2018-04-25T10:46:37.281Z,33.21
2018-04-25T10:49:05.552Z,33.05
2018-04-25T10:51:33.794Z,32.75
2018-04-25T10:54:02.297Z,32.18
2018-04-25T10:56:31.305Z,32.74
2018-04-25T10:58:59.538Z,32.43
2018-04-25T11:01:28.562Z,32.55
2018-04-25T11:03:57.564Z,32.19
2018-04-25T11:06:25.819Z,31.79
2018-04-25T11:08:54.054Z,31.00
2018-04-25T11:11:22.294Z,31.74
2018-04-25T11:13:50.541Z,31.33
2018-04-25T11:16:19.560Z,31.86
2018-04-25T11:18:47.794Z,31.57
2018-04-25T11:21:16.227Z,31.33
2018-04-25T11:23:44.509Z,31.10
2018-04-25T11:26:12.741Z,31.40
2018-04-25T11:28:41.760Z,31.59
2018-04-25T11:31:10.018Z,31.44
2018-04-25T11:33:39.021Z,30.62
2018-04-25T11:36:08.039Z,30.42
2018-04-25T11:38:36.273Z,30.61
2018-04-25T11:41:05.307Z,30.74
2018-04-25T11:43:33.550Z,31.09
2018-04-25T11:46:02.624Z,30.23
2018-04-25T11:48:30.856Z,30.28
2018-04-25T11:50:59.102Z,30.81
2018-04-25T11:53:28.106Z,31.25
2018-04-25T11:55:56.348Z,32.18
2018-04-25T11:58:24.594Z,32.78
2018-04-25T12:00:52.832Z,32.33
2018-04-25T12:03:21.309Z,30.36
2018-04-25T12:05:49.564Z,30.65
2018-04-25T12:08:17.804Z,31.06
2018-04-25T12:10:46.052Z,31.05
2018-04-25T12:13:14.335Z,31.53
2018-04-25T12:15:43.307Z,31.06
2018-04-25T12:18:11.565Z,29.64
2018-04-25T12:20:40.656Z,30.00
2018-04-25T12:23:08.821Z,30.06
2018-04-25T12:25:37.858Z,29.24
2018-04-25T12:28:06.102Z,29.66
2018-04-25T12:30:35.141Z,29.50
2018-04-25T12:33:03.399Z,29.85
2018-04-25T12:35:31.664Z,29.94
2018-04-25T12:37:59.951Z,30.29
2018-04-25T12:40:28.195Z,30.05
2018-04-25T12:42:57.214Z,29.54
2018-04-25T12:45:25.479Z,29.91
2018-04-25T12:47:53.721Z,29.32
2018-04-25T12:50:21.953Z,29.02
2018-04-25T12:52:50.194Z,30.20
2018-04-25T12:55:19.208Z,29.68
2018-04-25T12:57:47.480Z,29.15
2018-04-25T13:00:15.710Z,29.14
2018-04-25T13:02:43.946Z,29.08
2018-04-25T13:05:12.198Z,29.32
2018-04-25T13:07:41.210Z,29.53
2018-04-25T13:10:09.446Z,29.61
2018-04-25T13:12:38.465Z,27.98
2018-04-25T13:15:06.818Z,28.79
2018-04-25T13:17:35.726Z,28.05
2018-04-25T13:20:04.744Z,28.75
2018-04-25T13:22:32.983Z,28.70
2018-04-25T13:25:02.013Z,28.90
2018-04-25T13:27:30.262Z,28.29
2018-04-25T13:29:59.281Z,28.87
2018-04-25T13:32:27.518Z,28.65
2018-04-25T13:34:56.535Z,28.40
2018-04-25T13:37:24.794Z,29.00
2018-04-25T13:39:53.824Z,28.41
2018-04-25T13:42:22.058Z,28.65
2018-04-25T13:44:51.093Z,29.33
2018-04-25T13:47:19.342Z,30.38
2018-04-25T13:49:47.615Z,31.52
2018-04-25T13:52:16.625Z,31.30
2018-04-25T13:54:44.874Z,30.76
2018-04-25T13:57:13.878Z,31.12
2018-04-25T13:59:43.179Z,30.56
2018-04-25T14:02:11.431Z,30.08
2018-04-25T14:04:39.663Z,30.42
2018-04-25T14:07:07.918Z,31.29
2018-04-25T14:09:36.157Z,31.62
2018-04-25T14:12:04.409Z,31.87
2018-04-25T14:14:32.652Z,32.65
2018-04-25T14:17:00.908Z,32.21
2018-04-25T14:19:29.903Z,31.53
2018-04-25T14:21:58.474Z,31.49
2018-04-25T14:24:27.473Z,30.67
2018-04-25T14:26:55.762Z,30.63
2018-04-25T14:29:24.026Z,31.03
2018-04-25T14:31:53.027Z,31.75
2018-04-25T14:34:21.268Z,31.26
2018-04-25T14:36:49.534Z,31.53
2018-04-25T14:39:18.169Z,31.61
2018-04-25T14:41:46.409Z,32.11
2018-04-25T14:44:14.646Z,32.77
2018-04-25T14:46:42.890Z,31.48
2018-04-25T14:49:11.182Z,31.85
2018-04-25T14:51:39.429Z,31.26
2018-04-25T14:54:07.670Z,31.69
2018-04-25T14:56:37.464Z,32.04
2018-04-25T14:59:05.694Z,32.78
2018-04-25T15:01:34.805Z,32.59
2018-04-25T15:04:02.964Z,32.36
2018-04-25T15:06:31.975Z,33.47
2018-04-25T15:09:00.214Z,33.18
2018-04-25T15:11:29.429Z,33.30
2018-04-25T15:13:58.427Z,33.16
2018-04-25T15:16:26.670Z,33.58
2018-04-25T15:18:54.915Z,34.37
2018-04-25T15:21:23.159Z,34.03
2018-04-25T15:23:51.402Z,34.18
2018-04-25T15:26:20.416Z,34.34
2018-04-25T15:28:48.666Z,35.04
2018-04-25T15:31:16.907Z,34.49
2018-04-25T15:33:45.208Z,34.14
2018-04-25T15:36:13.468Z,34.56
2018-04-25T15:38:41.728Z,34.76
2018-04-25T15:41:09.959Z,34.86
2018-04-25T15:43:38.971Z,34.66
2018-04-25T15:46:07.224Z,34.77
2018-04-25T15:48:36.230Z,35.62
2018-04-25T15:51:04.490Z,36.28
2018-04-25T15:53:33.502Z,36.40
2018-04-25T15:56:01.752Z,36.40
2018-04-25T15:58:30.003Z,36.44
2018-04-25T16:00:58.244Z,36.37
2018-04-25T16:03:26.497Z,36.65
2018-04-25T16:05:55.519Z,36.15
2018-04-25T16:08:23.762Z,36.61
2018-04-25T16:10:52.784Z,36.70
2018-04-25T16:13:21.042Z,36.55
2018-04-25T16:15:49.280Z,36.75
2018-04-25T16:18:17.530Z,36.83
2018-04-25T16:20:45.793Z,37.38
2018-04-25T16:23:14.038Z,37.19
2018-04-25T16:25:43.058Z,37.51
2018-04-25T16:28:11.718Z,37.66
2018-04-25T16:30:40.866Z,37.57
2018-04-25T16:33:09.052Z,37.21
2018-04-25T16:35:37.293Z,37.48
2018-04-25T16:38:05.538Z,37.61
2018-04-25T16:40:34.838Z,37.43
2018-04-25T16:43:03.844Z,37.71
2018-04-25T16:45:32.082Z,37.76
2018-04-25T16:48:00.325Z,37.52
2018-04-25T16:50:28.631Z,37.94
2018-04-25T16:52:57.170Z,37.76
2018-04-25T16:55:25.445Z,38.13
2018-04-25T16:57:53.686Z,38.37
2018-04-25T17:00:22.708Z,38.24
2018-04-25T17:02:50.953Z,38.18
2018-04-25T17:05:19.966Z,39.60
2018-04-25T17:07:48.214Z,38.97
2018-04-25T17:10:16.459Z,39.16
2018-04-25T17:12:44.694Z,39.26
2018-04-25T17:15:12.949Z,39.15
2018-04-25T17:17:41.954Z,38.94
2018-04-25T17:20:10.202Z,39.80
2018-04-25T17:22:38.442Z,40.52
2018-04-25T17:25:06.702Z,39.82
2018-04-25T17:27:34.941Z,39.73
2018-04-25T17:30:03.995Z,39.83
2018-04-25T17:32:32.242Z,39.77
2018-04-25T17:35:00.490Z,39.63
2018-04-25T17:37:29.513Z,39.12
2018-04-25T17:39:57.752Z,39.61
2018-04-25T17:42:26.854Z,38.67
2018-04-25T17:44:55.857Z,39.07
2018-04-25T17:47:24.122Z,40.21
2018-04-25T17:49:53.157Z,40.30
2018-04-25T17:52:21.387Z,40.28
2018-04-25T17:54:50.411Z,39.71
2018-04-25T17:57:18.665Z,40.06
2018-04-25T17:59:47.679Z,40.83
2018-04-25T18:02:15.927Z,41.18
2018-04-25T18:04:44.930Z,42.25
2018-04-25T18:07:13.974Z,42.27
2018-04-25T18:09:42.939Z,42.67
2018-04-25T18:12:11.305Z,43.35
2018-04-25T18:14:39.542Z,43.64
2018-04-25T18:17:07.876Z,44.00
2018-04-25T18:19:36.318Z,43.67
2018-04-25T18:22:05.327Z,44.21
2018-04-25T18:24:33.583Z,43.88
2018-04-25T18:27:02.649Z,44.49
2018-04-25T18:29:30.897Z,44.77
2018-04-25T18:31:59.164Z,45.13
2018-04-25T18:34:27.430Z,45.11
2018-04-25T18:36:55.698Z,44.84
2018-04-25T18:39:23.975Z,44.83
2018-04-25T18:41:52.973Z,44.42
2018-04-25T18:44:21.222Z,44.99
2018-04-25T18:46:50.241Z,44.86
2018-04-25T18:49:18.634Z,45.10
2018-04-25T18:51:46.900Z,45.20
2018-04-25T18:54:15.288Z,45.54
2018-04-25T18:56:43.518Z,45.62
2018-04-25T18:59:11.816Z,45.82
2018-04-25T19:01:40.905Z,45.85
2018-04-25T19:04:09.987Z,46.44
2018-04-25T19:06:39.031Z,46.34
2018-04-25T19:09:07.265Z,46.55
2018-04-25T19:11:36.294Z,47.44
2018-04-25T19:14:04.534Z,48.38
2018-04-25T19:16:33.572Z,48.19
2018-04-25T19:19:01.803Z,47.69
2018-04-25T19:21:30.829Z,47.85
2018-04-25T19:23:59.058Z,48.17
2018-04-25T19:26:27.303Z,47.52
2018-04-25T19:28:55.564Z,47.98
2018-04-25T19:31:23.793Z,48.18
2018-04-25T19:33:52.878Z,48.23
2018-04-25T19:36:21.172Z,48.79
2018-04-25T19:38:50.190Z,49.24
2018-04-25T19:41:18.442Z,49.52
2018-04-25T19:43:47.520Z,48.92
2018-04-25T19:46:15.741Z,48.80
2018-04-25T19:48:44.004Z,48.98
2018-04-25T19:51:12.233Z,48.84
2018-04-25T19:53:40.490Z,48.94
2018-04-25T19:58:43.293Z,49.91
2018-04-25T20:01:11.549Z,50.08
2018-04-25T20:03:39.802Z,50.48
2018-04-25T20:06:08.038Z,50.12
2018-04-25T20:08:36.281Z,50.46
2018-04-25T20:11:04.557Z,50.59
2018-04-25T20:13:32.818Z,50.28
2018-04-25T20:16:01.061Z,50.84
2018-04-25T20:18:30.543Z,51.05
2018-04-25T20:20:58.794Z,50.74
2018-04-25T20:23:27.082Z,50.72
2018-04-25T20:25:55.438Z,51.30
2018-04-25T20:28:23.657Z,50.90
2018-04-25T20:30:51.906Z,51.00
2018-04-25T20:33:20.137Z,50.84
2018-04-25T20:35:48.431Z,51.05
2018-04-25T20:38:16.682Z,50.48
2018-04-25T20:40:44.985Z,51.02
2018-04-25T20:43:13.225Z,51.14
2018-04-25T20:45:42.230Z,51.26
2018-04-25T20:48:10.683Z,51.30
2018-04-25T20:50:39.998Z,51.53
2018-04-25T20:53:09.035Z,50.24
2018-04-25T20:55:37.317Z,50.59
2018-04-25T20:58:05.554Z,50.39
2018-04-25T21:00:33.789Z,50.52
2018-04-25T21:03:02.049Z,51.54
2018-04-25T21:05:30.302Z,51.09
2018-04-25T21:07:58.618Z,51.40
2018-04-25T21:10:26.871Z,51.45
2018-04-25T21:12:55.130Z,51.09
2018-04-25T21:15:23.350Z,50.85
2018-04-25T21:17:51.601Z,50.65
2018-04-25T21:20:19.842Z,52.09
2018-04-25T21:22:48.085Z,52.59
2018-04-25T21:25:17.089Z,53.11
2018-04-25T21:27:46.090Z,53.92
2018-04-25T21:30:15.098Z,54.58
2018-04-25T21:32:43.343Z,54.18
2018-04-25T21:35:12.369Z,54.89
2018-04-25T21:37:40.610Z,53.99
2018-04-25T21:40:08.855Z,55.43
2018-04-25T21:42:37.093Z,54.65
2018-04-25T21:45:05.611Z,54.26
2018-04-25T21:47:33.855Z,55.52
2018-04-25T21:50:02.097Z,56.40
2018-04-25T21:52:31.105Z,56.65
2018-04-25T21:54:59.658Z,56.36
2018-04-25T21:57:27.889Z,56.37
2018-04-25T21:59:56.126Z,57.20
2018-04-25T22:02:25.225Z,57.33
2018-04-25T22:04:54.234Z,57.02
2018-04-25T22:07:22.490Z,56.89
2018-04-25T22:09:51.490Z,56.66
2018-04-25T22:12:20.511Z,57.88
2018-04-25T22:14:48.743Z,58.51
2018-04-25T22:17:16.987Z,58.19
2018-04-25T22:19:45.237Z,58.46
2018-04-25T22:22:13.482Z,58.04
2018-04-25T22:24:42.508Z,58.17
2018-04-25T22:27:10.752Z,57.87
2018-04-25T22:29:39.770Z,57.97
2018-04-25T22:32:08.014Z,58.01
2018-04-25T22:34:37.022Z,58.99
2018-04-25T22:37:05.254Z,59.14
2018-04-25T22:39:33.506Z,60.94
2018-04-25T22:42:01.752Z,60.56
2018-04-25T22:44:29.998Z,59.78
2018-04-25T22:46:58.235Z,60.42
2018-04-25T22:49:26.469Z,60.54
2018-04-25T22:51:55.770Z,61.34
2018-04-25T22:54:24.788Z,61.55
2018-04-25T22:56:53.018Z,63.27
2018-04-25T22:59:22.033Z,63.44
2018-04-25T23:01:51.049Z,63.91
2018-04-25T23:04:19.286Z,64.89
2018-04-25T23:06:48.285Z,64.02
2018-04-25T23:09:17.299Z,63.62
2018-04-25T23:11:45.561Z,64.15
2018-04-25T23:14:14.571Z,63.72
2018-04-25T23:16:42.803Z,64.64
2018-04-25T23:19:11.042Z,63.06
2018-04-25T23:21:39.390Z,63.04
2018-04-25T23:24:08.477Z,62.73
2018-04-25T23:26:36.635Z,62.76
2018-04-25T23:29:05.657Z,63.15
2018-04-25T23:31:33.886Z,64.11
2018-04-25T23:34:02.130Z,62.53
2018-04-25T23:36:30.370Z,62.79
2018-04-25T23:38:59.384Z,63.58
2018-04-25T23:41:27.626Z,63.47
2018-04-25T23:43:56.634Z,62.58
2018-04-25T23:46:25.214Z,61.89
2018-04-25T23:48:53.537Z,60.49
2018-04-25T23:51:21.766Z,60.30
2018-04-25T23:53:50.774Z,60.18
2018-04-25T23:56:19.344Z,61.94
2018-04-25T23:58:48.338Z,60.85
